createdAt,value
2023-04-03T00:02:02.671Z,6.00
2023-04-03T00:04:29.615Z,8.17
2023-04-03T00:06:56.330Z,6.13
2023-04-03T00:09:23.059Z,8.83
2023-04-03T00:11:49.747Z,5.90
2023-04-03T00:14:16.559Z,7.23
2023-04-03T00:16:43.704Z,5.40
2023-04-03T00:19:12.732Z,8.03
2023-04-03T00:21:40.065Z,6.60
2023-04-03T00:24:07.624Z,5.43
2023-04-03T00:26:34.331Z,8.47
2023-04-03T00:29:01.239Z,10.77
2023-04-03T00:31:28.111Z,6.57
2023-04-03T00:33:54.864Z,5.43
2023-04-03T00:36:21.594Z,7.03
2023-04-03T00:38:48.385Z,8.70
2023-04-03T00:41:15.376Z,9.07
2023-04-03T00:43:42.119Z,8.60
2023-04-03T00:46:09.260Z,7.27
2023-04-03T00:48:41.075Z,6.63
2023-04-03T00:51:22.484Z,8.57
2023-04-03T00:53:54.356Z,5.60
2023-04-03T00:56:24.662Z,6.13
2023-04-03T00:59:05.507Z,11.20
2023-04-03T01:01:32.816Z,6.07
2023-04-03T01:04:01.128Z,6.70
2023-04-03T01:06:32.995Z,10.60
2023-04-03T01:09:01.187Z,7.47
2023-04-03T01:11:27.998Z,12.23
2023-04-03T01:13:54.840Z,10.23
2023-04-03T01:16:21.954Z,9.77
2023-04-03T01:18:48.932Z,6.80
2023-04-03T01:21:15.897Z,13.23
2023-04-03T01:23:52.517Z,6.53
2023-04-03T01:26:19.429Z,11.17
2023-04-03T01:28:46.681Z,9.60
2023-04-03T01:31:36.457Z,5.07
2023-04-03T01:34:04.134Z,9.17
2023-04-03T01:36:32.758Z,9.20
2023-04-03T01:39:01.248Z,4.70
2023-04-03T01:41:28.385Z,5.63
2023-04-03T01:43:55.273Z,6.67
2023-04-03T01:46:22.887Z,5.70
2023-04-03T01:48:49.811Z,6.47
2023-04-03T01:51:17.110Z,6.30
2023-04-03T01:53:44.254Z,7.10
2023-04-03T01:56:11.000Z,12.63
2023-04-03T01:58:37.932Z,10.77
2023-04-03T02:01:04.921Z,6.50
2023-04-03T02:03:32.021Z,7.47
2023-04-03T02:05:59.071Z,8.93
2023-04-03T02:08:25.870Z,8.10
2023-04-03T02:10:53.102Z,9.50
2023-04-03T02:13:20.244Z,7.80
2023-04-03T02:15:47.510Z,9.33
2023-04-03T02:18:14.853Z,9.57
2023-04-03T02:20:41.545Z,11.50
2023-04-03T02:23:08.279Z,8.63
2023-04-03T02:25:37.192Z,17.67
2023-04-03T02:28:05.571Z,10.10
2023-04-03T02:30:32.340Z,12.23
2023-04-03T02:32:59.123Z,11.50
2023-04-03T02:35:25.914Z,14.40
2023-04-03T02:37:53.121Z,8.90
2023-04-03T02:40:19.921Z,9.10
2023-04-03T02:42:46.785Z,18.57
2023-04-03T02:45:13.478Z,23.40
2023-04-03T02:47:40.359Z,21.97
2023-04-03T02:50:07.308Z,19.63
2023-04-03T02:52:34.477Z,17.33
2023-04-03T02:55:01.249Z,10.20
2023-04-03T02:57:28.424Z,14.07
2023-04-03T02:59:55.229Z,8.13
2023-04-03T03:02:22.166Z,7.97
2023-04-03T03:04:49.420Z,8.43
2023-04-03T03:07:16.287Z,7.83
2023-04-03T03:09:43.417Z,15.03
2023-04-03T03:12:10.213Z,9.20
2023-04-03T03:14:36.986Z,9.40
2023-04-03T03:17:03.706Z,15.87
2023-04-03T03:19:30.798Z,9.13
2023-04-03T03:21:58.000Z,10.37
2023-04-03T03:24:25.390Z,9.83
2023-04-03T03:26:52.070Z,9.23
2023-04-03T03:29:19.210Z,8.77
2023-04-03T03:31:46.348Z,8.40
2023-04-03T03:34:13.894Z,9.17
2023-04-03T03:36:40.712Z,16.03
2023-04-03T03:39:07.890Z,11.23
2023-04-03T03:41:34.659Z,7.83
2023-04-03T03:44:01.440Z,9.60
2023-04-03T03:46:28.517Z,7.80
2023-04-03T03:48:55.423Z,9.10
2023-04-03T03:51:22.245Z,6.07
2023-04-03T03:53:49.159Z,7.63
2023-04-03T03:56:16.109Z,6.97
2023-04-03T03:58:42.913Z,5.67
2023-04-03T04:01:09.655Z,9.77
2023-04-03T04:03:36.520Z,6.73
2023-04-03T04:06:03.368Z,7.83
2023-04-03T04:08:30.206Z,5.17
2023-04-03T04:10:57.418Z,8.97
2023-04-03T04:13:24.480Z,9.00
2023-04-03T04:15:51.236Z,6.07
2023-04-03T04:18:18.941Z,9.03
2023-04-03T04:20:46.934Z,8.23
2023-04-03T04:23:14.026Z,7.70
2023-04-03T04:25:41.295Z,6.40
2023-04-03T04:28:08.108Z,7.07
2023-04-03T04:30:35.269Z,11.77
2023-04-03T04:33:02.525Z,20.07
2023-04-03T04:35:29.714Z,8.80
2023-04-03T04:37:57.073Z,9.13
2023-04-03T04:40:24.213Z,9.87
2023-04-03T04:42:51.338Z,9.03
2023-04-03T04:45:18.517Z,6.40
2023-04-03T04:47:45.534Z,10.37
2023-04-03T04:50:12.780Z,13.00
2023-04-03T04:52:40.067Z,10.03
2023-04-03T04:55:07.295Z,8.80
2023-04-03T04:57:34.203Z,18.57
2023-04-03T05:00:01.077Z,10.90
2023-04-03T05:02:28.715Z,7.67
2023-04-03T05:04:55.957Z,11.90
2023-04-03T05:07:23.103Z,12.43
2023-04-03T05:09:49.812Z,17.87
2023-04-03T05:12:16.979Z,9.20
2023-04-03T05:14:44.115Z,13.03
2023-04-03T05:17:11.285Z,11.03
2023-04-03T05:19:37.987Z,12.03
2023-04-03T05:22:05.320Z,9.60
2023-04-03T05:24:32.533Z,10.43
2023-04-03T05:26:59.474Z,9.70
2023-04-03T05:29:26.257Z,17.40
2023-04-03T05:31:53.252Z,34.37
2023-04-03T05:34:20.398Z,32.03
2023-04-03T05:36:47.517Z,30.67
2023-04-03T05:39:14.530Z,19.07
2023-04-03T05:41:41.441Z,11.47
2023-04-03T05:44:08.278Z,9.93
2023-04-03T05:46:35.503Z,10.73
2023-04-03T05:49:02.666Z,13.70
2023-04-03T05:51:34.419Z,13.80
2023-04-03T05:54:08.367Z,8.83
2023-04-03T05:56:35.247Z,12.67
2023-04-03T05:59:02.399Z,14.50
2023-04-03T06:01:29.176Z,16.80
2023-04-03T06:03:56.912Z,14.50
2023-04-03T06:06:23.790Z,9.50
2023-04-03T06:08:51.137Z,13.83
2023-04-03T06:11:18.174Z,12.77
2023-04-03T06:13:46.142Z,9.50
2023-04-03T06:16:18.230Z,11.17
2023-04-03T06:18:45.009Z,16.97
2023-04-03T06:21:11.793Z,6.80
2023-04-03T06:23:38.747Z,8.33
2023-04-03T06:26:06.628Z,6.80
2023-04-03T06:28:33.748Z,10.00
2023-04-03T06:31:00.780Z,5.80
2023-04-03T06:33:27.580Z,8.43
2023-04-03T06:35:59.289Z,7.77
2023-04-03T06:38:26.419Z,11.63
2023-04-03T06:40:53.237Z,13.40
2023-04-03T06:43:20.090Z,11.67
2023-04-03T06:45:47.556Z,11.80
2023-04-03T06:48:14.699Z,13.23
2023-04-03T06:50:41.967Z,11.37
2023-04-03T06:53:09.094Z,8.07
2023-04-03T06:55:36.916Z,10.80
2023-04-03T06:58:04.948Z,9.37
2023-04-03T07:00:32.197Z,11.30
2023-04-03T07:02:58.975Z,9.63
2023-04-03T07:05:26.069Z,11.07
2023-04-03T07:07:53.476Z,6.30
2023-04-03T07:10:20.437Z,7.40
2023-04-03T07:12:47.194Z,12.10
2023-04-03T07:15:15.523Z,8.60
2023-04-03T07:17:42.478Z,8.00
2023-04-03T07:20:10.030Z,9.40
2023-04-03T07:22:36.815Z,7.73
2023-04-03T07:25:04.285Z,15.70
2023-04-03T07:27:31.473Z,7.30
2023-04-03T07:29:58.973Z,9.53
2023-04-03T07:32:25.927Z,13.57
2023-04-03T07:34:52.627Z,7.80
2023-04-03T07:37:19.559Z,10.33
2023-04-03T07:39:46.408Z,7.03
2023-04-03T07:42:13.507Z,8.20
2023-04-03T07:44:40.330Z,7.80
2023-04-03T07:47:07.104Z,7.67
2023-04-03T07:49:34.017Z,9.67
2023-04-03T07:52:00.941Z,10.03
2023-04-03T07:54:27.767Z,7.93
2023-04-03T07:56:54.506Z,6.47
2023-04-03T07:59:21.307Z,6.37
2023-04-03T08:01:48.077Z,8.00
2023-04-03T08:04:15.145Z,6.07
2023-04-03T08:06:46.612Z,8.63
2023-04-03T08:09:17.879Z,10.77
2023-04-03T08:11:45.455Z,6.63
2023-04-03T08:14:17.390Z,11.23
2023-04-03T08:16:46.595Z,6.90
2023-04-03T08:19:22.389Z,9.17
2023-04-03T08:21:52.586Z,6.60
2023-04-03T08:24:19.433Z,5.60
2023-04-03T08:26:46.471Z,10.10
2023-04-03T08:29:14.324Z,4.87
2023-04-03T08:31:41.457Z,9.33
2023-04-03T08:34:08.223Z,11.03
2023-04-03T08:36:35.089Z,4.90
2023-04-03T08:39:02.049Z,8.60
2023-04-03T08:41:42.364Z,9.30
2023-04-03T08:44:33.129Z,11.43
2023-04-03T08:47:23.881Z,7.97
2023-04-03T08:50:12.108Z,7.83
2023-04-03T08:52:58.617Z,6.30
2023-04-03T08:55:45.992Z,4.07
2023-04-03T08:58:26.880Z,8.10
2023-04-03T09:01:11.536Z,7.23
2023-04-03T09:03:41.810Z,6.73
2023-04-03T09:06:30.162Z,8.37
2023-04-03T09:09:22.173Z,5.20
2023-04-03T09:12:18.063Z,4.97
2023-04-03T09:14:58.298Z,10.70
2023-04-03T09:17:34.111Z,3.47
2023-04-03T09:20:20.725Z,4.60
2023-04-03T09:22:53.850Z,4.33
2023-04-03T09:25:27.938Z,8.90
2023-04-03T09:27:54.796Z,7.40
2023-04-03T09:30:24.777Z,6.73
2023-04-03T09:32:54.681Z,7.13
2023-04-03T09:35:32.716Z,5.93
2023-04-03T09:38:14.151Z,6.43
2023-04-03T09:40:43.323Z,11.63
2023-04-03T09:43:22.018Z,8.30
2023-04-03T09:45:50.952Z,8.83
2023-04-03T09:48:20.992Z,8.77
2023-04-03T09:51:05.211Z,5.20
2023-04-03T09:53:36.973Z,4.57
2023-04-03T09:56:19.062Z,8.80
2023-04-03T09:58:51.766Z,6.17
2023-04-03T10:01:26.175Z,8.37
2023-04-03T10:04:17.789Z,5.10
2023-04-03T10:06:52.878Z,7.90
2023-04-03T10:09:31.714Z,4.10
2023-04-03T10:12:06.040Z,6.10
2023-04-03T10:14:38.643Z,4.60
2023-04-03T10:17:43.113Z,7.40
2023-04-03T10:20:48.014Z,5.40
2023-04-03T10:23:45.347Z,6.93
2023-04-03T10:26:13.977Z,7.17
2023-04-03T10:28:53.075Z,5.53
2023-04-03T10:31:47.008Z,9.03
2023-04-03T10:34:29.486Z,5.40
2023-04-03T10:37:02.438Z,10.00
2023-04-03T10:39:32.861Z,8.40
2023-04-03T10:42:21.817Z,5.67
2023-04-03T10:44:57.137Z,14.03
2023-04-03T10:47:34.151Z,6.87
2023-04-03T10:50:27.502Z,7.73
2023-04-03T10:52:58.950Z,6.53
2023-04-03T10:55:33.260Z,10.30
2023-04-03T10:58:02.275Z,5.60
2023-04-03T11:00:38.435Z,8.87
2023-04-03T11:03:24.283Z,7.20
2023-04-03T11:05:54.839Z,7.40
2023-04-03T11:08:27.482Z,6.20
2023-04-03T11:10:58.976Z,6.83
2023-04-03T11:14:02.261Z,7.70
2023-04-03T11:16:37.864Z,7.17
2023-04-03T11:19:48.420Z,8.53
2023-04-03T11:22:17.984Z,6.33
2023-04-03T11:24:52.045Z,6.60
2023-04-03T11:27:23.746Z,7.97
2023-04-03T11:29:52.548Z,5.87
2023-04-03T11:33:06.429Z,8.63
2023-04-03T11:35:34.664Z,5.33
2023-04-03T11:38:06.725Z,6.60
2023-04-03T11:40:36.586Z,6.93
2023-04-03T11:43:26.664Z,8.93
2023-04-03T11:46:05.087Z,5.40
2023-04-03T11:48:34.913Z,9.93
2023-04-03T11:51:03.406Z,9.83
2023-04-03T11:53:33.869Z,9.60
2023-04-03T11:56:02.629Z,8.23
2023-04-03T11:58:37.214Z,9.63
2023-04-03T12:01:09.307Z,7.13
2023-04-03T12:03:43.325Z,6.60
2023-04-03T12:06:11.418Z,5.17
2023-04-03T12:08:41.295Z,8.93
2023-04-03T12:11:14.462Z,5.03
2023-04-03T12:13:53.334Z,6.07
2023-04-03T12:16:22.939Z,7.93
2023-04-03T12:19:05.296Z,7.97
2023-04-03T12:21:50.085Z,6.70
2023-04-03T12:24:16.929Z,8.10
2023-04-03T12:27:02.685Z,6.53
2023-04-03T12:29:35.344Z,3.60
2023-04-03T12:32:19.095Z,9.57
2023-04-03T12:34:54.033Z,7.13
2023-04-03T12:37:44.917Z,5.97
2023-04-03T12:40:42.668Z,7.80
2023-04-03T12:43:36.291Z,5.00
2023-04-03T12:46:06.227Z,4.93
2023-04-03T12:48:39.856Z,5.63
2023-04-03T12:51:07.121Z,5.10
2023-04-03T12:53:37.060Z,10.03
2023-04-03T12:56:29.554Z,7.00
2023-04-03T12:59:25.224Z,6.17
2023-04-03T13:02:00.428Z,6.80
2023-04-03T13:04:30.034Z,7.63
2023-04-03T13:06:56.905Z,6.10
2023-04-03T13:09:28.346Z,4.07
2023-04-03T13:12:11.709Z,4.53
2023-04-03T13:14:38.734Z,7.33
2023-04-03T13:17:15.868Z,6.10
2023-04-03T13:19:43.478Z,4.80
2023-04-03T13:22:40.066Z,4.40
2023-04-03T13:25:09.985Z,5.73
2023-04-03T13:27:37.158Z,3.83
2023-04-03T13:30:04.987Z,3.70
2023-04-03T13:32:33.487Z,6.57
2023-04-03T13:35:18.121Z,4.77
2023-04-03T13:37:56.698Z,3.77
2023-04-03T13:40:23.612Z,3.97
2023-04-03T13:43:07.527Z,6.40
2023-04-03T13:45:35.997Z,5.37
2023-04-03T13:48:23.277Z,8.23
2023-04-03T13:50:59.651Z,10.90
2023-04-03T13:53:27.285Z,4.83
2023-04-03T13:56:05.435Z,2.90
2023-04-03T13:58:35.366Z,6.60
2023-04-03T14:01:22.742Z,5.33
2023-04-03T14:04:02.012Z,7.00
2023-04-03T14:06:30.339Z,4.70
2023-04-03T14:08:57.524Z,4.07
2023-04-03T14:11:29.926Z,5.97
2023-04-03T14:14:02.007Z,7.47
2023-04-03T14:16:33.314Z,3.80
2023-04-03T14:19:00.130Z,6.70
2023-04-03T14:21:27.216Z,4.57
2023-04-03T14:23:53.953Z,7.03
2023-04-03T14:26:23.882Z,4.20
2023-04-03T14:28:54.257Z,7.07
2023-04-03T14:31:22.649Z,6.93
2023-04-03T14:33:49.676Z,4.40
2023-04-03T14:36:18.271Z,9.47
2023-04-03T14:38:46.663Z,5.80
2023-04-03T14:41:17.010Z,5.63
2023-04-03T14:43:45.881Z,5.30
2023-04-03T14:46:23.329Z,7.50
2023-04-03T14:48:51.726Z,8.00
2023-04-03T14:51:18.944Z,6.73
2023-04-03T14:53:46.378Z,5.73
2023-04-03T14:56:28.307Z,5.40
2023-04-03T14:59:01.813Z,5.87
2023-04-03T15:01:30.149Z,5.00
2023-04-03T15:03:57.127Z,5.33
2023-04-03T15:06:24.708Z,10.53
2023-04-03T15:08:51.426Z,5.00
2023-04-03T15:11:18.245Z,4.90
2023-04-03T15:13:45.498Z,4.53
2023-04-03T15:16:19.533Z,3.93
2023-04-03T15:18:47.426Z,4.93
2023-04-03T15:21:15.085Z,5.00
2023-04-03T15:23:42.944Z,6.80
2023-04-03T15:26:10.078Z,4.00
2023-04-03T15:28:40.338Z,4.47
2023-04-03T15:31:07.618Z,5.63
2023-04-03T15:33:35.643Z,4.00
2023-04-03T15:36:07.751Z,5.40
2023-04-03T15:38:39.154Z,7.07
2023-04-03T15:41:06.357Z,5.83
2023-04-03T15:43:34.728Z,5.20
2023-04-03T15:46:02.082Z,6.10
2023-04-03T15:48:29.883Z,7.87
2023-04-03T15:50:57.861Z,2.80
2023-04-03T15:53:25.945Z,8.90
2023-04-03T15:55:52.725Z,4.80
2023-04-03T15:58:19.655Z,4.83
2023-04-03T16:00:46.615Z,4.40
2023-04-03T16:03:17.843Z,5.93
2023-04-03T16:05:44.959Z,5.03
2023-04-03T16:08:12.522Z,7.87
2023-04-03T16:10:40.224Z,5.70
2023-04-03T16:13:07.996Z,4.10
2023-04-03T16:15:36.220Z,4.67
2023-04-03T16:18:04.089Z,8.80
2023-04-03T16:20:31.628Z,8.00
2023-04-03T16:23:01.114Z,9.37
2023-04-03T16:25:28.047Z,6.63
2023-04-03T16:27:54.925Z,9.37
2023-04-03T16:30:21.649Z,5.50
2023-04-03T16:32:48.581Z,6.30
2023-04-03T16:35:15.416Z,6.63
2023-04-03T16:37:42.222Z,5.63
2023-04-03T16:40:09.846Z,4.43
2023-04-03T16:42:37.941Z,4.63
2023-04-03T16:45:06.930Z,5.00
2023-04-03T16:47:33.965Z,7.93
2023-04-03T16:50:01.233Z,7.33
2023-04-03T16:52:28.239Z,8.10
2023-04-03T16:54:56.633Z,16.07
2023-04-03T16:57:25.701Z,7.30
2023-04-03T16:59:53.699Z,3.33
2023-04-03T17:02:22.043Z,6.23
2023-04-03T17:04:50.766Z,5.70
2023-04-03T17:07:23.320Z,4.13
2023-04-03T17:09:50.356Z,5.23
2023-04-03T17:12:17.434Z,5.97
2023-04-03T17:14:44.292Z,5.90
2023-04-03T17:17:11.886Z,4.90
2023-04-03T17:19:39.512Z,5.87
2023-04-03T17:22:06.296Z,6.70
2023-04-03T17:24:34.164Z,6.93
2023-04-03T17:27:01.183Z,7.70
2023-04-03T17:29:27.958Z,6.57
2023-04-03T17:31:54.937Z,4.63
2023-04-03T17:34:21.920Z,12.93
2023-04-03T17:36:49.067Z,4.33
2023-04-03T17:39:16.113Z,18.80
2023-04-03T17:41:42.980Z,6.00
2023-04-03T17:44:09.821Z,6.77
2023-04-03T17:46:36.688Z,6.67
2023-04-03T17:49:04.602Z,8.43
2023-04-03T17:51:34.410Z,5.40
2023-04-03T17:54:02.114Z,5.73
2023-04-03T17:56:28.943Z,4.90
2023-04-03T17:58:58.234Z,4.07
2023-04-03T18:01:30.875Z,8.47
2023-04-03T18:04:00.247Z,7.23
2023-04-03T18:06:31.862Z,3.63
2023-04-03T18:09:07.230Z,5.95
2023-04-03T18:11:34.610Z,12.77
2023-04-03T18:14:03.643Z,11.70
2023-04-03T18:16:31.118Z,3.83
2023-04-03T18:19:17.629Z,4.73
2023-04-03T18:21:48.434Z,7.50
2023-04-03T18:24:18.299Z,5.43
2023-04-03T18:26:48.292Z,8.07
2023-04-03T18:29:16.297Z,25.17
2023-04-03T18:31:47.814Z,7.10
2023-04-03T18:34:14.960Z,6.77
2023-04-03T18:36:42.036Z,8.00
2023-04-03T18:39:09.198Z,5.43
2023-04-03T18:41:37.461Z,7.60
2023-04-03T18:44:07.893Z,10.43
2023-04-03T18:46:34.879Z,8.87
2023-04-03T18:49:01.989Z,6.47
2023-04-03T18:51:28.950Z,13.17
2023-04-03T18:53:55.877Z,10.00
2023-04-03T18:56:22.953Z,9.97
2023-04-03T18:58:49.858Z,8.27
2023-04-03T19:01:17.224Z,7.93
2023-04-03T19:03:44.846Z,9.87
2023-04-03T19:06:11.828Z,7.63
2023-04-03T19:08:38.960Z,9.43
2023-04-03T19:11:05.926Z,7.33
2023-04-03T19:13:33.623Z,14.70
2023-04-03T19:16:01.008Z,10.83
2023-04-03T19:18:28.086Z,7.17
2023-04-03T19:20:56.945Z,8.60
2023-04-03T19:23:24.867Z,9.57
2023-04-03T19:26:07.664Z,10.30
2023-04-03T19:28:34.931Z,7.03
2023-04-03T19:31:02.070Z,11.97
2023-04-03T19:33:28.941Z,13.27
2023-04-03T19:35:55.810Z,9.63
2023-04-03T19:38:22.784Z,10.47
2023-04-03T19:40:49.704Z,17.13
2023-04-03T19:43:17.316Z,16.50
2023-04-03T19:45:46.418Z,20.53
2023-04-03T19:48:13.529Z,24.50
2023-04-03T19:50:40.789Z,26.57
2023-04-03T19:53:10.404Z,21.80
2023-04-03T19:55:37.788Z,22.07
2023-04-03T19:58:04.876Z,18.93
2023-04-03T20:00:32.061Z,22.00
2023-04-03T20:02:59.213Z,13.67
2023-04-03T20:05:26.138Z,14.93
2023-04-03T20:07:52.942Z,19.50
2023-04-03T20:10:20.271Z,12.93
2023-04-03T20:12:47.292Z,18.60
2023-04-03T20:15:14.143Z,15.43
2023-04-03T20:17:41.274Z,14.50
2023-04-03T20:20:08.841Z,15.30
2023-04-03T20:22:37.800Z,11.90
2023-04-03T20:25:10.594Z,13.60
2023-04-03T20:27:39.608Z,11.20
2023-04-03T20:30:10.743Z,16.40
2023-04-03T20:32:37.527Z,13.77
2023-04-03T20:35:04.946Z,11.10
2023-04-03T20:37:32.772Z,12.90
2023-04-03T20:40:00.397Z,13.87
2023-04-03T20:42:27.551Z,9.83
2023-04-03T20:44:57.161Z,11.70
2023-04-03T20:47:24.289Z,11.90
2023-04-03T20:49:53.500Z,12.03
2023-04-03T20:52:20.413Z,14.63
2023-04-03T20:54:47.268Z,14.30
2023-04-03T20:57:14.717Z,11.83
2023-04-03T20:59:42.363Z,7.97
2023-04-03T21:02:09.190Z,8.57
2023-04-03T21:04:46.474Z,15.03
2023-04-03T21:07:52.330Z,11.20
2023-04-03T21:10:56.998Z,10.83
2023-04-03T21:14:01.258Z,9.40
2023-04-03T21:16:28.014Z,16.43
2023-04-03T21:19:21.679Z,10.83
2023-04-03T21:21:49.716Z,10.80
2023-04-03T21:24:17.784Z,10.80
2023-04-03T21:26:45.101Z,14.23
2023-04-03T21:29:12.243Z,12.87
2023-04-03T21:31:47.858Z,9.30
2023-04-03T21:34:15.462Z,9.50
2023-04-03T21:36:42.829Z,10.60
2023-04-03T21:39:09.681Z,13.63
2023-04-03T21:41:36.795Z,11.47
2023-04-03T21:44:03.958Z,12.70
2023-04-03T21:46:31.052Z,16.63
2023-04-03T21:48:57.945Z,18.60
2023-04-03T21:51:24.891Z,8.90
2023-04-03T21:53:53.330Z,11.37
2023-04-03T21:56:22.702Z,12.27
2023-04-03T21:58:49.536Z,9.30
2023-04-03T22:01:17.998Z,10.87
2023-04-03T22:03:46.682Z,8.53
2023-04-03T22:06:15.389Z,13.87
2023-04-03T22:08:42.749Z,12.40
2023-04-03T22:11:12.899Z,15.90
2023-04-03T22:13:40.100Z,12.90
2023-04-03T22:16:08.039Z,11.60
2023-04-03T22:18:35.720Z,14.30
2023-04-03T22:21:03.093Z,13.27
2023-04-03T22:23:29.922Z,10.07
2023-04-03T22:26:14.695Z,10.77
2023-04-03T22:28:46.680Z,17.10
2023-04-03T22:31:14.945Z,10.30
2023-04-03T22:33:42.950Z,17.60
2023-04-03T22:36:12.339Z,21.80
2023-04-03T22:38:43.007Z,16.00
2023-04-03T22:41:10.166Z,9.97
2023-04-03T22:43:37.909Z,12.57
2023-04-03T22:46:09.207Z,17.07
2023-04-03T22:48:42.257Z,13.80
2023-04-03T22:51:09.639Z,15.60
2023-04-03T22:53:37.145Z,19.43
2023-04-03T22:56:08.539Z,15.60
2023-04-03T22:58:35.514Z,11.57
2023-04-03T23:01:10.749Z,14.57
2023-04-03T23:03:38.838Z,16.60
2023-04-03T23:06:06.328Z,13.10
2023-04-03T23:08:35.036Z,13.47
2023-04-03T23:11:02.545Z,19.60
2023-04-03T23:13:29.824Z,17.33
2023-04-03T23:15:58.577Z,11.53
2023-04-03T23:18:26.880Z,10.67
2023-04-03T23:20:55.040Z,12.37
2023-04-03T23:23:23.457Z,15.40
2023-04-03T23:25:58.730Z,10.40
2023-04-03T23:28:26.071Z,16.33
2023-04-03T23:31:01.460Z,12.57
2023-04-03T23:33:30.323Z,11.23
2023-04-03T23:35:58.515Z,11.57
2023-04-03T23:38:25.805Z,12.20
2023-04-03T23:40:52.680Z,10.00
2023-04-03T23:43:19.437Z,12.90
2023-04-03T23:45:46.712Z,12.63
2023-04-03T23:48:13.675Z,10.50
2023-04-03T23:50:40.634Z,8.57
2023-04-03T23:53:08.447Z,10.07
2023-04-03T23:55:35.356Z,10.53
2023-04-03T23:58:02.705Z,7.90
